Shannon, Illinois
Current Conditions -  °F | °C
As of 3:15 AM on Thursday 23 Oct 2014 (Local Time) from KFEP Reporting Station
Clear Clear  
Wind Chill: 30°   Ceiling: Unl
Heat Index: 36°   Visibility: 10mi
Dew Point: 33°   Wind: 7mph
Humidity: 90%   Direction: 140°SE
Pressure: 30.21"   Gusts: NA
Location:  42.15°N, 89.74°W
Report Text: KFEP 230815Z AUTO 14006KT 10SM CLR 02/01 A3021 RMK AO2 T00200005
Loading
Personal Weather Stations






























Interactive Weather Map
Tropical Storm Tracking
New forecast layout! Learn more

10-Day Weather Forecast

Advertisements
Track Severe Weather on mobile